sensor_id;sensor_type;location;lat;lon;timestamp;P1;durP1;ratioP1;P2;durP2;ratioP2
71343;SDS011;59146;43.850;25.948;2023-08-01T00:01:08;14.25;;;9.55;;
71343;SDS011;59146;43.850;25.948;2023-08-01T00:03:33;11.40;;;9.90;;
71343;SDS011;59146;43.850;25.948;2023-08-01T00:05:58;15.82;;;10.57;;
71343;SDS011;59146;43.850;25.948;2023-08-01T00:08:24;12.73;;;9.65;;
71343;SDS011;59146;43.850;25.948;2023-08-01T00:10:49;14.23;;;10.77;;
71343;SDS011;59146;43.850;25.948;2023-08-01T00:13:15;13.10;;;10.75;;
71343;SDS011;59146;43.850;25.948;2023-08-01T00:15:40;13.35;;;10.52;;
71343;SDS011;59146;43.850;25.948;2023-08-01T00:18:05;15.45;;;10.48;;
71343;SDS011;59146;43.850;25.948;2023-08-01T00:20:31;10.93;;;9.90;;
71343;SDS011;59146;43.850;25.948;2023-08-01T00:22:56;11.27;;;10.15;;
71343;SDS011;59146;43.850;25.948;2023-08-01T00:25:22;13.82;;;11.23;;
71343;SDS011;59146;43.850;25.948;2023-08-01T00:27:47;16.95;;;10.68;;
71343;SDS011;59146;43.850;25.948;2023-08-01T00:30:13;12.98;;;9.88;;
71343;SDS011;59146;43.850;25.948;2023-08-01T00:32:38;18.95;;;11.15;;
71343;SDS011;59146;43.850;25.948;2023-08-01T00:35:04;14.07;;;11.38;;
71343;SDS011;59146;43.850;25.948;2023-08-01T00:37:29;15.07;;;11.10;;
71343;SDS011;59146;43.850;25.948;2023-08-01T00:39:55;12.57;;;11.27;;
71343;SDS011;59146;43.850;25.948;2023-08-01T00:42:21;14.10;;;12.55;;
71343;SDS011;59146;43.850;25.948;2023-08-01T00:44:46;12.75;;;11.40;;
71343;SDS011;59146;43.850;25.948;2023-08-01T00:47:13;13.50;;;12.07;;
71343;SDS011;59146;43.850;25.948;2023-08-01T00:49:39;12.50;;;11.10;;
71343;SDS011;59146;43.850;25.948;2023-08-01T00:52:05;17.15;;;12.43;;
71343;SDS011;59146;43.850;25.948;2023-08-01T00:54:31;12.75;;;11.02;;
71343;SDS011;59146;43.850;25.948;2023-08-01T00:57:01;12.43;;;11.13;;
71343;SDS011;59146;43.850;25.948;2023-08-01T00:59:28;12.38;;;11.18;;
71343;SDS011;59146;43.850;25.948;2023-08-01T01:01:54;14.25;;;11.25;;
71343;SDS011;59146;43.850;25.948;2023-08-01T01:04:19;12.02;;;10.82;;
71343;SDS011;59146;43.850;25.948;2023-08-01T01:06:47;16.33;;;10.88;;
71343;SDS011;59146;43.850;25.948;2023-08-01T01:09:18;11.25;;;9.50;;
71343;SDS011;59146;43.850;25.948;2023-08-01T01:11:45;11.93;;;9.15;;
71343;SDS011;59146;43.850;25.948;2023-08-01T01:14:11;10.20;;;7.97;;
71343;SDS011;59146;43.850;25.948;2023-08-01T01:16:36;11.70;;;8.25;;
71343;SDS011;59146;43.850;25.948;2023-08-01T01:19:06;11.15;;;8.82;;
71343;SDS011;59146;43.850;25.948;2023-08-01T01:21:33;14.57;;;10.52;;
71343;SDS011;59146;43.850;25.948;2023-08-01T01:24:03;14.75;;;9.27;;
71343;SDS011;59146;43.850;25.948;2023-08-01T01:26:31;12.80;;;8.88;;
71343;SDS011;59146;43.850;25.948;2023-08-01T01:28:58;13.00;;;9.85;;
71343;SDS011;59146;43.850;25.948;2023-08-01T01:31:25;9.57;;;8.60;;
71343;SDS011;59146;43.850;25.948;2023-08-01T01:33:51;17.23;;;9.93;;
71343;SDS011;59146;43.850;25.948;2023-08-01T01:36:17;15.93;;;11.15;;
71343;SDS011;59146;43.850;25.948;2023-08-01T01:38:43;12.75;;;9.98;;
71343;SDS011;59146;43.850;25.948;2023-08-01T01:41:08;13.55;;;9.45;;
71343;SDS011;59146;43.850;25.948;2023-08-01T01:43:33;11.02;;;9.57;;
71343;SDS011;59146;43.850;25.948;2023-08-01T01:45:59;12.90;;;10.43;;
71343;SDS011;59146;43.850;25.948;2023-08-01T01:48:24;13.70;;;10.93;;
71343;SDS011;59146;43.850;25.948;2023-08-01T01:50:50;12.43;;;10.57;;
71343;SDS011;59146;43.850;25.948;2023-08-01T01:53:15;16.20;;;11.65;;
71343;SDS011;59146;43.850;25.948;2023-08-01T01:55:40;18.83;;;11.73;;
71343;SDS011;59146;43.850;25.948;2023-08-01T01:58:06;12.27;;;10.77;;
71343;SDS011;59146;43.850;25.948;2023-08-01T02:00:31;15.98;;;10.77;;
71343;SDS011;59146;43.850;25.948;2023-08-01T02:02:56;11.13;;;10.02;;
71343;SDS011;59146;43.850;25.948;2023-08-01T02:05:22;11.65;;;10.30;;
71343;SDS011;59146;43.850;25.948;2023-08-01T02:07:47;13.32;;;9.75;;
71343;SDS011;59146;43.850;25.948;2023-08-01T02:10:13;16.70;;;10.50;;
71343;SDS011;59146;43.850;25.948;2023-08-01T02:12:38;11.02;;;9.98;;
71343;SDS011;59146;43.850;25.948;2023-08-01T02:15:04;11.95;;;9.70;;
71343;SDS011;59146;43.850;25.948;2023-08-01T02:17:31;12.70;;;9.55;;
71343;SDS011;59146;43.850;25.948;2023-08-01T02:19:56;10.63;;;9.52;;
71343;SDS011;59146;43.850;25.948;2023-08-01T02:22:22;10.25;;;9.30;;
71343;SDS011;59146;43.850;25.948;2023-08-01T02:24:49;16.27;;;10.68;;
71343;SDS011;59146;43.850;25.948;2023-08-01T02:27:15;12.95;;;10.13;;
71343;SDS011;59146;43.850;25.948;2023-08-01T02:29:40;10.93;;;9.50;;
71343;SDS011;59146;43.850;25.948;2023-08-01T02:32:06;14.15;;;10.93;;
71343;SDS011;59146;43.850;25.948;2023-08-01T02:34:31;12.65;;;9.73;;
71343;SDS011;59146;43.850;25.948;2023-08-01T02:36:57;9.68;;;8.77;;
71343;SDS011;59146;43.850;25.948;2023-08-01T02:39:22;13.25;;;9.60;;
71343;SDS011;59146;43.850;25.948;2023-08-01T02:41:47;12.10;;;9.80;;
71343;SDS011;59146;43.850;25.948;2023-08-01T02:44:13;10.90;;;9.45;;
71343;SDS011;59146;43.850;25.948;2023-08-01T02:46:38;11.75;;;9.98;;
71343;SDS011;59146;43.850;25.948;2023-08-01T02:49:04;12.05;;;9.80;;
71343;SDS011;59146;43.850;25.948;2023-08-01T02:51:29;13.88;;;10.43;;
71343;SDS011;59146;43.850;25.948;2023-08-01T02:53:55;20.88;;;10.23;;
71343;SDS011;59146;43.850;25.948;2023-08-01T02:56:20;11.90;;;10.70;;
71343;SDS011;59146;43.850;25.948;2023-08-01T02:58:45;12.02;;;10.27;;
71343;SDS011;59146;43.850;25.948;2023-08-01T03:01:11;11.00;;;9.93;;
71343;SDS011;59146;43.850;25.948;2023-08-01T03:03:38;12.88;;;10.45;;
71343;SDS011;59146;43.850;25.948;2023-08-01T03:06:04;11.40;;;10.20;;
71343;SDS011;59146;43.850;25.948;2023-08-01T03:08:29;13.98;;;9.88;;
71343;SDS011;59146;43.850;25.948;2023-08-01T03:10:54;33.35;;;10.95;;
71343;SDS011;59146;43.850;25.948;2023-08-01T03:13:20;12.98;;;10.40;;
71343;SDS011;59146;43.850;25.948;2023-08-01T03:15:46;10.45;;;9.15;;
71343;SDS011;59146;43.850;25.948;2023-08-01T03:18:11;11.38;;;9.55;;
71343;SDS011;59146;43.850;25.948;2023-08-01T03:20:37;11.38;;;10.05;;
71343;SDS011;59146;43.850;25.948;2023-08-01T03:23:02;13.23;;;10.40;;
71343;SDS011;59146;43.850;25.948;2023-08-01T03:25:28;13.07;;;9.50;;
71343;SDS011;59146;43.850;25.948;2023-08-01T03:27:53;12.75;;;9.85;;
71343;SDS011;59146;43.850;25.948;2023-08-01T03:30:19;12.68;;;8.55;;
71343;SDS011;59146;43.850;25.948;2023-08-01T03:32:46;11.77;;;8.23;;
71343;SDS011;59146;43.850;25.948;2023-08-01T03:35:12;15.65;;;8.27;;
71343;SDS011;59146;43.850;25.948;2023-08-01T03:37:39;11.50;;;7.60;;
71343;SDS011;59146;43.850;25.948;2023-08-01T03:40:05;8.75;;;7.57;;
71343;SDS011;59146;43.850;25.948;2023-08-01T03:42:33;12.18;;;8.10;;
71343;SDS011;59146;43.850;25.948;2023-08-01T03:44:59;10.18;;;7.95;;
71343;SDS011;59146;43.850;25.948;2023-08-01T03:47:25;8.13;;;7.32;;
71343;SDS011;59146;43.850;25.948;2023-08-01T03:49:50;9.85;;;7.88;;
71343;SDS011;59146;43.850;25.948;2023-08-01T03:52:15;17.70;;;8.60;;
71343;SDS011;59146;43.850;25.948;2023-08-01T03:54:41;13.88;;;7.63;;
71343;SDS011;59146;43.850;25.948;2023-08-01T03:57:06;16.30;;;7.47;;
71343;SDS011;59146;43.850;25.948;2023-08-01T03:59:32;15.13;;;7.43;;
71343;SDS011;59146;43.850;25.948;2023-08-01T04:01:57;14.05;;;8.13;;
71343;SDS011;59146;43.850;25.948;2023-08-01T04:04:22;9.15;;;7.13;;
71343;SDS011;59146;43.850;25.948;2023-08-01T04:06:48;9.95;;;6.38;;
71343;SDS011;59146;43.850;25.948;2023-08-01T04:09:13;9.02;;;6.97;;
71343;SDS011;59146;43.850;25.948;2023-08-01T04:11:39;12.90;;;6.85;;
71343;SDS011;59146;43.850;25.948;2023-08-01T04:14:04;8.35;;;7.05;;
71343;SDS011;59146;43.850;25.948;2023-08-01T04:16:29;10.68;;;7.68;;
71343;SDS011;59146;43.850;25.948;2023-08-01T04:18:55;10.18;;;7.43;;
71343;SDS011;59146;43.850;25.948;2023-08-01T04:21:20;14.52;;;8.35;;
71343;SDS011;59146;43.850;25.948;2023-08-01T04:23:46;18.15;;;8.55;;
71343;SDS011;59146;43.850;25.948;2023-08-01T04:26:11;20.73;;;9.07;;
71343;SDS011;59146;43.850;25.948;2023-08-01T04:28:37;9.75;;;8.10;;
71343;SDS011;59146;43.850;25.948;2023-08-01T04:31:02;14.25;;;8.73;;
71343;SDS011;59146;43.850;25.948;2023-08-01T04:33:28;8.70;;;7.40;;
71343;SDS011;59146;43.850;25.948;2023-08-01T04:35:53;15.77;;;7.15;;
71343;SDS011;59146;43.850;25.948;2023-08-01T04:38:18;19.05;;;8.40;;
71343;SDS011;59146;43.850;25.948;2023-08-01T04:40:44;21.60;;;8.43;;
71343;SDS011;59146;43.850;25.948;2023-08-01T04:43:09;13.45;;;8.82;;
71343;SDS011;59146;43.850;25.948;2023-08-01T04:45:36;14.02;;;7.30;;
71343;SDS011;59146;43.850;25.948;2023-08-01T04:48:01;10.85;;;8.13;;
71343;SDS011;59146;43.850;25.948;2023-08-01T04:50:27;14.63;;;7.90;;
71343;SDS011;59146;43.850;25.948;2023-08-01T04:52:54;14.65;;;8.85;;
71343;SDS011;59146;43.850;25.948;2023-08-01T04:55:20;16.00;;;8.15;;
71343;SDS011;59146;43.850;25.948;2023-08-01T04:57:45;9.07;;;7.55;;
71343;SDS011;59146;43.850;25.948;2023-08-01T05:00:11;16.17;;;8.48;;
71343;SDS011;59146;43.850;25.948;2023-08-01T05:02:37;17.25;;;9.27;;
71343;SDS011;59146;43.850;25.948;2023-08-01T05:05:03;11.90;;;7.72;;
71343;SDS011;59146;43.850;25.948;2023-08-01T05:07:29;13.68;;;8.75;;
71343;SDS011;59146;43.850;25.948;2023-08-01T05:09:55;15.70;;;8.75;;
71343;SDS011;59146;43.850;25.948;2023-08-01T05:12:21;13.88;;;9.50;;
71343;SDS011;59146;43.850;25.948;2023-08-01T05:14:46;11.70;;;10.40;;
71343;SDS011;59146;43.850;25.948;2023-08-01T05:17:11;12.38;;;10.57;;
71343;SDS011;59146;43.850;25.948;2023-08-01T05:19:37;14.68;;;10.35;;
71343;SDS011;59146;43.850;25.948;2023-08-01T05:22:02;11.43;;;8.75;;
71343;SDS011;59146;43.850;25.948;2023-08-01T05:24:28;10.57;;;9.40;;
71343;SDS011;59146;43.850;25.948;2023-08-01T05:26:53;11.60;;;10.10;;
71343;SDS011;59146;43.850;25.948;2023-08-01T05:29:19;12.55;;;8.68;;
71343;SDS011;59146;43.850;25.948;2023-08-01T05:31:44;19.15;;;9.55;;
71343;SDS011;59146;43.850;25.948;2023-08-01T05:34:09;15.43;;;9.27;;
71343;SDS011;59146;43.850;25.948;2023-08-01T05:36:35;12.80;;;8.85;;
71343;SDS011;59146;43.850;25.948;2023-08-01T05:39:02;22.80;;;9.80;;
71343;SDS011;59146;43.850;25.948;2023-08-01T05:41:28;13.02;;;9.63;;
71343;SDS011;59146;43.850;25.948;2023-08-01T05:43:54;12.32;;;10.88;;
71343;SDS011;59146;43.850;25.948;2023-08-01T05:46:19;11.55;;;10.38;;
71343;SDS011;59146;43.850;25.948;2023-08-01T05:48:49;13.52;;;10.40;;
71343;SDS011;59146;43.850;25.948;2023-08-01T05:51:15;19.10;;;13.25;;
71343;SDS011;59146;43.850;25.948;2023-08-01T05:53:41;26.65;;;11.02;;
71343;SDS011;59146;43.850;25.948;2023-08-01T05:56:06;13.15;;;10.55;;
71343;SDS011;59146;43.850;25.948;2023-08-01T05:58:32;15.93;;;11.50;;
71343;SDS011;59146;43.850;25.948;2023-08-01T06:00:57;15.77;;;10.80;;
71343;SDS011;59146;43.850;25.948;2023-08-01T06:03:23;13.15;;;11.77;;
71343;SDS011;59146;43.850;25.948;2023-08-01T06:05:48;22.75;;;12.13;;
71343;SDS011;59146;43.850;25.948;2023-08-01T06:08:14;16.45;;;11.82;;
71343;SDS011;59146;43.850;25.948;2023-08-01T06:10:40;14.55;;;11.27;;
71343;SDS011;59146;43.850;25.948;2023-08-01T06:13:07;15.35;;;11.70;;
71343;SDS011;59146;43.850;25.948;2023-08-01T06:15:33;16.15;;;12.02;;
71343;SDS011;59146;43.850;25.948;2023-08-01T06:17:58;16.90;;;10.77;;
71343;SDS011;59146;43.850;25.948;2023-08-01T06:20:23;16.15;;;11.57;;
71343;SDS011;59146;43.850;25.948;2023-08-01T06:22:49;17.95;;;13.00;;
71343;SDS011;59146;43.850;25.948;2023-08-01T06:25:14;18.05;;;12.13;;
71343;SDS011;59146;43.850;25.948;2023-08-01T06:27:40;12.90;;;11.45;;
71343;SDS011;59146;43.850;25.948;2023-08-01T06:30:05;18.80;;;12.10;;
71343;SDS011;59146;43.850;25.948;2023-08-01T06:32:31;18.38;;;12.45;;
71343;SDS011;59146;43.850;25.948;2023-08-01T06:34:57;15.50;;;12.85;;
71343;SDS011;59146;43.850;25.948;2023-08-01T06:37:22;15.13;;;11.70;;
71343;SDS011;59146;43.850;25.948;2023-08-01T06:39:47;16.58;;;13.18;;
71343;SDS011;59146;43.850;25.948;2023-08-01T06:42:13;13.82;;;12.32;;
71343;SDS011;59146;43.850;25.948;2023-08-01T06:44:38;14.98;;;12.85;;
71343;SDS011;59146;43.850;25.948;2023-08-01T06:47:04;15.43;;;12.50;;
71343;SDS011;59146;43.850;25.948;2023-08-01T06:49:29;14.43;;;10.90;;
71343;SDS011;59146;43.850;25.948;2023-08-01T06:51:54;14.68;;;12.40;;
71343;SDS011;59146;43.850;25.948;2023-08-01T06:54:20;15.55;;;12.52;;
71343;SDS011;59146;43.850;25.948;2023-08-01T06:56:45;16.17;;;12.70;;
71343;SDS011;59146;43.850;25.948;2023-08-01T06:59:15;23.95;;;21.50;;
71343;SDS011;59146;43.850;25.948;2023-08-01T07:01:42;19.88;;;14.20;;
71343;SDS011;59146;43.850;25.948;2023-08-01T07:04:12;13.65;;;11.88;;
71343;SDS011;59146;43.850;25.948;2023-08-01T07:06:38;12.32;;;10.70;;
71343;SDS011;59146;43.850;25.948;2023-08-01T07:09:04;13.07;;;11.52;;
71343;SDS011;59146;43.850;25.948;2023-08-01T07:11:29;13.45;;;11.10;;
71343;SDS011;59146;43.850;25.948;2023-08-01T07:13:55;12.95;;;10.93;;
71343;SDS011;59146;43.850;25.948;2023-08-01T07:16:20;14.52;;;10.85;;
71343;SDS011;59146;43.850;25.948;2023-08-01T07:18:46;15.40;;;9.95;;
71343;SDS011;59146;43.850;25.948;2023-08-01T07:21:13;17.50;;;10.75;;
71343;SDS011;59146;43.850;25.948;2023-08-01T07:23:39;19.30;;;10.88;;
71343;SDS011;59146;43.850;25.948;2023-08-01T07:26:04;15.60;;;11.07;;
71343;SDS011;59146;43.850;25.948;2023-08-01T07:28:30;19.02;;;10.20;;
71343;SDS011;59146;43.850;25.948;2023-08-01T07:30:59;19.00;;;9.77;;
71343;SDS011;59146;43.850;25.948;2023-08-01T07:33:29;16.52;;;11.32;;
71343;SDS011;59146;43.850;25.948;2023-08-01T07:35:55;25.02;;;10.75;;
71343;SDS011;59146;43.850;25.948;2023-08-01T07:38:20;16.23;;;10.45;;
71343;SDS011;59146;43.850;25.948;2023-08-01T07:40:46;12.00;;;9.73;;
71343;SDS011;59146;43.850;25.948;2023-08-01T07:43:11;14.30;;;10.00;;
71343;SDS011;59146;43.850;25.948;2023-08-01T07:45:37;18.63;;;10.20;;
71343;SDS011;59146;43.850;25.948;2023-08-01T07:48:03;10.90;;;9.73;;
71343;SDS011;59146;43.850;25.948;2023-08-01T07:50:29;13.38;;;10.18;;
71343;SDS011;59146;43.850;25.948;2023-08-01T07:52:54;12.73;;;9.57;;
71343;SDS011;59146;43.850;25.948;2023-08-01T07:55:20;9.73;;;8.70;;
71343;SDS011;59146;43.850;25.948;2023-08-01T07:57:46;9.52;;;7.38;;
71343;SDS011;59146;43.850;25.948;2023-08-01T08:00:12;8.52;;;7.72;;
71343;SDS011;59146;43.850;25.948;2023-08-01T08:02:38;10.52;;;7.47;;
71343;SDS011;59146;43.850;25.948;2023-08-01T08:05:04;10.68;;;8.10;;
71343;SDS011;59146;43.850;25.948;2023-08-01T08:07:30;11.20;;;9.55;;
71343;SDS011;59146;43.850;25.948;2023-08-01T08:09:56;8.88;;;7.90;;
71343;SDS011;59146;43.850;25.948;2023-08-01T08:12:22;9.18;;;7.60;;
71343;SDS011;59146;43.850;25.948;2023-08-01T08:14:47;9.52;;;8.38;;
71343;SDS011;59146;43.850;25.948;2023-08-01T08:17:13;10.63;;;7.82;;
71343;SDS011;59146;43.850;25.948;2023-08-01T08:19:38;8.90;;;7.93;;
71343;SDS011;59146;43.850;25.948;2023-08-01T08:22:04;11.23;;;7.28;;
71343;SDS011;59146;43.850;25.948;2023-08-01T08:24:30;10.20;;;7.78;;
71343;SDS011;59146;43.850;25.948;2023-08-01T08:26:55;11.25;;;8.38;;
71343;SDS011;59146;43.850;25.948;2023-08-01T08:29:21;9.80;;;7.57;;
71343;SDS011;59146;43.850;25.948;2023-08-01T08:31:47;12.27;;;8.48;;
71343;SDS011;59146;43.850;25.948;2023-08-01T08:34:12;13.32;;;8.00;;
71343;SDS011;59146;43.850;25.948;2023-08-01T08:36:38;12.60;;;7.85;;
71343;SDS011;59146;43.850;25.948;2023-08-01T08:39:03;13.60;;;8.10;;
71343;SDS011;59146;43.850;25.948;2023-08-01T08:41:29;14.82;;;8.20;;
71343;SDS011;59146;43.850;25.948;2023-08-01T08:44:01;20.20;;;8.57;;
71343;SDS011;59146;43.850;25.948;2023-08-01T08:46:28;14.57;;;8.48;;
71343;SDS011;59146;43.850;25.948;2023-08-01T08:48:57;13.75;;;8.40;;
71343;SDS011;59146;43.850;25.948;2023-08-01T08:51:28;15.88;;;8.20;;
71343;SDS011;59146;43.850;25.948;2023-08-01T08:53:56;11.98;;;7.97;;
71343;SDS011;59146;43.850;25.948;2023-08-01T08:56:21;13.65;;;7.75;;
71343;SDS011;59146;43.850;25.948;2023-08-01T08:58:48;16.48;;;8.00;;
71343;SDS011;59146;43.850;25.948;2023-08-01T09:01:14;10.50;;;7.45;;
71343;SDS011;59146;43.850;25.948;2023-08-01T09:03:40;11.57;;;6.63;;
71343;SDS011;59146;43.850;25.948;2023-08-01T09:06:11;10.82;;;6.78;;
71343;SDS011;59146;43.850;25.948;2023-08-01T09:08:40;8.27;;;5.93;;
71343;SDS011;59146;43.850;25.948;2023-08-01T09:11:13;10.27;;;7.05;;
71343;SDS011;59146;43.850;25.948;2023-08-01T09:13:39;13.15;;;6.65;;
71343;SDS011;59146;43.850;25.948;2023-08-01T09:16:04;12.18;;;6.82;;
71343;SDS011;59146;43.850;25.948;2023-08-01T09:18:31;10.68;;;6.65;;
71343;SDS011;59146;43.850;25.948;2023-08-01T09:20:57;7.25;;;6.45;;
71343;SDS011;59146;43.850;25.948;2023-08-01T09:23:27;10.25;;;6.78;;
71343;SDS011;59146;43.850;25.948;2023-08-01T09:25:52;9.02;;;6.68;;
71343;SDS011;59146;43.850;25.948;2023-08-01T09:28:18;9.82;;;6.40;;
71343;SDS011;59146;43.850;25.948;2023-08-01T09:30:52;8.95;;;6.93;;
71343;SDS011;59146;43.850;25.948;2023-08-01T09:33:23;14.05;;;7.25;;
71343;SDS011;59146;43.850;25.948;2023-08-01T09:35:51;17.85;;;6.90;;
71343;SDS011;59146;43.850;25.948;2023-08-01T09:38:17;12.43;;;6.72;;
71343;SDS011;59146;43.850;25.948;2023-08-01T09:40:44;12.68;;;7.28;;
71343;SDS011;59146;43.850;25.948;2023-08-01T09:43:10;10.07;;;6.80;;
71343;SDS011;59146;43.850;25.948;2023-08-01T09:45:37;14.15;;;6.72;;
71343;SDS011;59146;43.850;25.948;2023-08-01T09:48:02;7.88;;;6.25;;
71343;SDS011;59146;43.850;25.948;2023-08-01T09:50:28;8.88;;;6.28;;
71343;SDS011;59146;43.850;25.948;2023-08-01T09:52:54;10.57;;;6.30;;
71343;SDS011;59146;43.850;25.948;2023-08-01T09:55:38;7.03;;;6.32;;
71343;SDS011;59146;43.850;25.948;2023-08-01T09:58:07;11.52;;;6.18;;
71343;SDS011;59146;43.850;25.948;2023-08-01T10:00:34;8.20;;;6.38;;
71343;SDS011;59146;43.850;25.948;2023-08-01T10:03:00;10.98;;;6.03;;
71343;SDS011;59146;43.850;25.948;2023-08-01T10:05:27;7.50;;;6.22;;
71343;SDS011;59146;43.850;25.948;2023-08-01T10:07:55;10.50;;;6.45;;
71343;SDS011;59146;43.850;25.948;2023-08-01T10:10:27;11.30;;;6.53;;
71343;SDS011;59146;43.850;25.948;2023-08-01T10:12:54;7.07;;;5.80;;
71343;SDS011;59146;43.850;25.948;2023-08-01T10:15:21;7.30;;;6.28;;
71343;SDS011;59146;43.850;25.948;2023-08-01T10:17:47;9.43;;;6.20;;
71343;SDS011;59146;43.850;25.948;2023-08-01T10:20:12;8.32;;;6.10;;
71343;SDS011;59146;43.850;25.948;2023-08-01T10:22:40;8.15;;;5.82;;
71343;SDS011;59146;43.850;25.948;2023-08-01T10:25:07;9.85;;;5.72;;
71343;SDS011;59146;43.850;25.948;2023-08-01T10:27:35;6.72;;;6.03;;
71343;SDS011;59146;43.850;25.948;2023-08-01T10:30:02;6.70;;;5.35;;
71343;SDS011;59146;43.850;25.948;2023-08-01T10:32:33;6.10;;;5.30;;
71343;SDS011;59146;43.850;25.948;2023-08-01T10:35:00;8.50;;;5.47;;
71343;SDS011;59146;43.850;25.948;2023-08-01T10:37:26;9.35;;;6.10;;
71343;SDS011;59146;43.850;25.948;2023-08-01T10:39:58;8.10;;;5.95;;
71343;SDS011;59146;43.850;25.948;2023-08-01T10:42:25;8.95;;;6.25;;
71343;SDS011;59146;43.850;25.948;2023-08-01T10:44:50;7.03;;;5.40;;
71343;SDS011;59146;43.850;25.948;2023-08-01T10:47:24;7.70;;;5.53;;
71343;SDS011;59146;43.850;25.948;2023-08-01T10:49:54;5.95;;;5.10;;
71343;SDS011;59146;43.850;25.948;2023-08-01T10:52:20;7.75;;;4.72;;
71343;SDS011;59146;43.850;25.948;2023-08-01T10:55:10;5.20;;;4.70;;
71343;SDS011;59146;43.850;25.948;2023-08-01T10:57:38;5.50;;;5.00;;
71343;SDS011;59146;43.850;25.948;2023-08-01T11:00:15;6.05;;;5.07;;
71343;SDS011;59146;43.850;25.948;2023-08-01T11:02:41;7.32;;;5.13;;
71343;SDS011;59146;43.850;25.948;2023-08-01T11:05:07;5.68;;;4.65;;
71343;SDS011;59146;43.850;25.948;2023-08-01T11:07:33;6.78;;;5.03;;
71343;SDS011;59146;43.850;25.948;2023-08-01T11:10:09;6.80;;;5.00;;
71343;SDS011;59146;43.850;25.948;2023-08-01T11:12:40;5.82;;;5.32;;
71343;SDS011;59146;43.850;25.948;2023-08-01T11:15:08;7.03;;;4.85;;
71343;SDS011;59146;43.850;25.948;2023-08-01T11:17:38;5.82;;;5.20;;
71343;SDS011;59146;43.850;25.948;2023-08-01T11:20:06;6.97;;;4.78;;
71343;SDS011;59146;43.850;25.948;2023-08-01T11:22:35;7.28;;;4.57;;
71343;SDS011;59146;43.850;25.948;2023-08-01T11:25:02;5.75;;;4.90;;
71343;SDS011;59146;43.850;25.948;2023-08-01T11:27:28;7.40;;;5.55;;
71343;SDS011;59146;43.850;25.948;2023-08-01T11:29:54;7.90;;;6.13;;
71343;SDS011;59146;43.850;25.948;2023-08-01T11:32:20;7.10;;;4.90;;
71343;SDS011;59146;43.850;25.948;2023-08-01T11:34:46;7.28;;;4.85;;
71343;SDS011;59146;43.850;25.948;2023-08-01T11:37:13;6.78;;;5.32;;
71343;SDS011;59146;43.850;25.948;2023-08-01T11:39:39;7.70;;;4.93;;
71343;SDS011;59146;43.850;25.948;2023-08-01T11:42:06;6.35;;;4.95;;
71343;SDS011;59146;43.850;25.948;2023-08-01T11:44:31;6.40;;;4.97;;
71343;SDS011;59146;43.850;25.948;2023-08-01T11:46:57;5.90;;;5.13;;
71343;SDS011;59146;43.850;25.948;2023-08-01T11:49:22;5.63;;;4.95;;
71343;SDS011;59146;43.850;25.948;2023-08-01T11:51:48;6.45;;;5.07;;
71343;SDS011;59146;43.850;25.948;2023-08-01T11:54:14;4.90;;;4.30;;
71343;SDS011;59146;43.850;25.948;2023-08-01T11:56:41;5.85;;;4.50;;
71343;SDS011;59146;43.850;25.948;2023-08-01T11:59:11;6.15;;;5.55;;
71343;SDS011;59146;43.850;25.948;2023-08-01T12:01:41;5.70;;;5.13;;
71343;SDS011;59146;43.850;25.948;2023-08-01T12:04:08;4.93;;;4.53;;
71343;SDS011;59146;43.850;25.948;2023-08-01T12:06:33;4.95;;;3.95;;
71343;SDS011;59146;43.850;25.948;2023-08-01T12:09:09;6.70;;;4.93;;
71343;SDS011;59146;43.850;25.948;2023-08-01T12:11:36;5.25;;;4.80;;
71343;SDS011;59146;43.850;25.948;2023-08-01T12:14:04;7.18;;;5.32;;
71343;SDS011;59146;43.850;25.948;2023-08-01T12:16:46;9.50;;;5.13;;
71343;SDS011;59146;43.850;25.948;2023-08-01T12:19:18;4.80;;;4.32;;
71343;SDS011;59146;43.850;25.948;2023-08-01T12:21:47;7.60;;;5.10;;
71343;SDS011;59146;43.850;25.948;2023-08-01T12:24:13;8.75;;;5.32;;
71343;SDS011;59146;43.850;25.948;2023-08-01T12:26:39;5.07;;;4.57;;
71343;SDS011;59146;43.850;25.948;2023-08-01T12:29:04;4.93;;;4.53;;
71343;SDS011;59146;43.850;25.948;2023-08-01T12:31:30;5.85;;;4.55;;
71343;SDS011;59146;43.850;25.948;2023-08-01T12:33:56;6.53;;;4.70;;
71343;SDS011;59146;43.850;25.948;2023-08-01T12:36:21;6.10;;;4.80;;
71343;SDS011;59146;43.850;25.948;2023-08-01T12:38:47;7.68;;;4.63;;
71343;SDS011;59146;43.850;25.948;2023-08-01T12:41:12;6.35;;;5.00;;
71343;SDS011;59146;43.850;25.948;2023-08-01T12:43:38;4.90;;;4.50;;
71343;SDS011;59146;43.850;25.948;2023-08-01T12:46:03;6.40;;;4.63;;
71343;SDS011;59146;43.850;25.948;2023-08-01T12:48:29;11.07;;;5.70;;
71343;SDS011;59146;43.850;25.948;2023-08-01T12:50:55;7.18;;;5.18;;
71343;SDS011;59146;43.850;25.948;2023-08-01T12:53:21;6.18;;;4.32;;
71343;SDS011;59146;43.850;25.948;2023-08-01T12:55:47;4.57;;;4.10;;
71343;SDS011;59146;43.850;25.948;2023-08-01T12:58:13;6.38;;;4.28;;
71343;SDS011;59146;43.850;25.948;2023-08-01T13:00:40;5.10;;;4.60;;
71343;SDS011;59146;43.850;25.948;2023-08-01T13:03:06;5.72;;;5.22;;
71343;SDS011;59146;43.850;25.948;2023-08-01T13:05:35;4.78;;;4.38;;
71343;SDS011;59146;43.850;25.948;2023-08-01T13:08:02;4.80;;;4.40;;
71343;SDS011;59146;43.850;25.948;2023-08-01T13:10:34;5.00;;;4.60;;
71343;SDS011;59146;43.850;25.948;2023-08-01T13:13:01;5.10;;;4.72;;
71343;SDS011;59146;43.850;25.948;2023-08-01T13:15:27;10.38;;;5.13;;
71343;SDS011;59146;43.850;25.948;2023-08-01T13:17:53;5.55;;;4.90;;
71343;SDS011;59146;43.850;25.948;2023-08-01T13:20:18;5.75;;;4.65;;
71343;SDS011;59146;43.850;25.948;2023-08-01T13:22:45;4.53;;;4.13;;
71343;SDS011;59146;43.850;25.948;2023-08-01T13:25:12;5.20;;;4.70;;
71343;SDS011;59146;43.850;25.948;2023-08-01T13:27:38;6.95;;;4.78;;
71343;SDS011;59146;43.850;25.948;2023-08-01T13:30:04;5.07;;;4.50;;
71343;SDS011;59146;43.850;25.948;2023-08-01T13:32:29;7.18;;;5.20;;
71343;SDS011;59146;43.850;25.948;2023-08-01T13:34:55;4.97;;;4.47;;
71343;SDS011;59146;43.850;25.948;2023-08-01T13:37:20;5.10;;;4.70;;
71343;SDS011;59146;43.850;25.948;2023-08-01T13:39:46;5.75;;;4.18;;
71343;SDS011;59146;43.850;25.948;2023-08-01T13:42:11;4.93;;;4.43;;
71343;SDS011;59146;43.850;25.948;2023-08-01T13:44:37;5.18;;;4.68;;
71343;SDS011;59146;43.850;25.948;2023-08-01T13:47:03;10.18;;;5.25;;
71343;SDS011;59146;43.850;25.948;2023-08-01T13:49:29;4.45;;;4.05;;
71343;SDS011;59146;43.850;25.948;2023-08-01T13:51:55;4.15;;;3.80;;
71343;SDS011;59146;43.850;25.948;2023-08-01T13:54:20;7.45;;;4.32;;
71343;SDS011;59146;43.850;25.948;2023-08-01T13:56:45;5.00;;;4.38;;
71343;SDS011;59146;43.850;25.948;2023-08-01T13:59:11;7.65;;;4.18;;
71343;SDS011;59146;43.850;25.948;2023-08-01T14:01:36;5.45;;;4.18;;
71343;SDS011;59146;43.850;25.948;2023-08-01T14:04:03;5.47;;;4.90;;
71343;SDS011;59146;43.850;25.948;2023-08-01T14:06:29;4.40;;;4.00;;
71343;SDS011;59146;43.850;25.948;2023-08-01T14:08:54;4.82;;;4.38;;
71343;SDS011;59146;43.850;25.948;2023-08-01T14:11:20;4.20;;;3.80;;
71343;SDS011;59146;43.850;25.948;2023-08-01T14:13:45;7.10;;;5.10;;
71343;SDS011;59146;43.850;25.948;2023-08-01T14:16:11;12.15;;;4.75;;
71343;SDS011;59146;43.850;25.948;2023-08-01T14:18:36;15.13;;;4.53;;